Time;durP1;ratioP1;P1;durP2;ratioP2;P2;SDS_P1;SDS_P2;PMS_P1;PMS_P2;Temp;Humidity;BMP_temperature;BMP_pressure;BME280_temperature;BME280_humidity;BME280_pressure;Samples;Min_cycle;Max_cycle;Signal;HPM_P1;HPM_P2
2023/10/29 00:00:12;;;;;;;5.30;1.10;;;13.70;1.00;;;;;;5020328;28;20403;-69
2023/10/29 00:02:37;;;;;;;5.00;1.10;;;13.70;1.00;;;;;;5027462;28;20407;-69
2023/10/29 00:05:04;;;;;;;4.63;0.77;;;13.70;1.00;;;;;;5025392;28;20402;-69
2023/10/29 00:07:30;;;;;;;4.75;1.25;;;13.70;1.00;;;;;;5009910;28;20409;-69
2023/10/29 00:09:56;;;;;;;7.93;1.27;;;13.60;1.00;;;;;;5019262;28;20448;-69
2023/10/29 00:12:21;;;;;;;4.83;0.90;;;13.50;1.00;;;;;;5009469;28;20401;-69
2023/10/29 00:14:47;;;;;;;5.75;1.08;;;13.60;1.00;;;;;;5010474;28;20482;-69
2023/10/29 00:17:13;;;;;;;5.07;1.10;;;13.60;1.00;;;;;;5023446;28;20918;-69
2023/10/29 00:19:39;;;;;;;4.80;1.20;;;13.60;1.00;;;;;;5029030;28;20885;-69
2023/10/29 00:22:04;;;;;;;8.85;1.30;;;13.50;1.00;;;;;;5024306;28;20447;-69
2023/10/29 00:24:30;;;;;;;5.27;1.20;;;13.60;1.00;;;;;;5018308;28;20410;-69
2023/10/29 00:26:55;;;;;;;4.90;1.00;;;13.50;1.00;;;;;;5016998;28;20439;-69
2023/10/29 00:29:21;;;;;;;5.13;0.97;;;13.40;1.00;;;;;;5008598;28;20497;-69
2023/10/29 00:31:47;;;;;;;4.85;1.17;;;13.40;1.00;;;;;;5024964;28;20482;-69
2023/10/29 00:34:12;;;;;;;5.25;1.10;;;13.30;1.00;;;;;;5022047;28;20413;-69
2023/10/29 00:36:38;;;;;;;4.90;0.90;;;13.30;1.00;;;;;;5017919;28;20403;-69
2023/10/29 00:39:03;;;;;;;5.20;1.20;;;13.20;1.00;;;;;;5024819;28;20406;-69
2023/10/29 00:41:30;;;;;;;5.67;1.10;;;13.20;1.00;;;;;;5024320;28;20457;-69
2023/10/29 00:43:56;;;;;;;5.20;1.20;;;13.20;1.00;;;;;;5026205;28;20425;-69
2023/10/29 00:46:23;;;;;;;6.00;1.08;;;13.20;1.00;;;;;;5024444;28;20440;-69
2023/10/29 00:48:49;;;;;;;7.63;1.00;;;13.30;1.00;;;;;;5009101;28;21045;-70
2023/10/29 00:51:14;;;;;;;5.10;1.02;;;13.20;1.00;;;;;;5007510;28;20487;-69
2023/10/29 00:53:41;;;;;;;7.10;1.10;;;13.20;1.00;;;;;;5008761;28;20427;-69
2023/10/29 00:56:08;;;;;;;4.73;0.60;;;13.30;1.00;;;;;;5008839;28;20416;-69
2023/10/29 00:58:35;;;;;;;4.97;1.10;;;13.30;1.00;;;;;;5012808;28;20390;-69
2023/10/29 01:01:01;;;;;;;5.32;1.15;;;13.40;1.00;;;;;;5031698;28;20416;-69
2023/10/29 01:03:27;;;;;;;8.20;1.00;;;13.50;1.00;;;;;;5032522;28;20429;-70
2023/10/29 01:05:54;;;;;;;5.30;1.00;;;13.40;1.00;;;;;;5032498;28;20437;-69
2023/10/29 01:08:19;;;;;;;5.53;1.00;;;13.40;1.00;;;;;;5032313;28;20379;-69
2023/10/29 01:10:45;;;;;;;4.60;0.90;;;13.50;1.00;;;;;;5032697;28;20398;-69
2023/10/29 01:13:11;;;;;;;5.28;0.82;;;13.50;1.00;;;;;;5030921;28;20892;-69
2023/10/29 01:15:36;;;;;;;4.83;1.00;;;13.40;1.00;;;;;;5015275;28;20397;-69
2023/10/29 01:18:02;;;;;;;4.80;0.77;;;13.40;1.00;;;;;;5031645;28;20410;-69
2023/10/29 01:20:27;;;;;;;6.40;1.27;;;13.40;1.00;;;;;;5015284;28;20391;-69
2023/10/29 01:22:53;;;;;;;5.30;0.70;;;13.30;1.00;;;;;;5031442;28;20402;-69
2023/10/29 01:25:19;;;;;;;5.90;0.80;;;13.40;1.00;;;;;;5011151;28;20988;-69
2023/10/29 01:27:45;;;;;;;4.85;0.90;;;13.40;1.00;;;;;;5012362;28;20483;-69
2023/10/29 01:30:11;;;;;;;5.27;0.80;;;13.40;1.00;;;;;;5016841;28;20522;-69
2023/10/29 01:32:38;;;;;;;4.40;0.90;;;13.50;1.00;;;;;;5031620;28;20426;-69
2023/10/29 01:35:03;;;;;;;4.50;0.50;;;13.30;1.00;;;;;;5031575;28;20964;-69
2023/10/29 01:37:29;;;;;;;4.82;0.65;;;13.30;1.00;;;;;;5029426;28;20514;-69
2023/10/29 01:39:55;;;;;;;4.70;0.60;;;13.40;1.00;;;;;;5031603;28;20490;-72
2023/10/29 01:42:21;;;;;;;4.70;0.80;;;13.40;1.00;;;;;;5020553;28;20408;-69
2023/10/29 01:44:46;;;;;;;4.90;1.20;;;13.30;1.00;;;;;;5022612;28;20413;-69
2023/10/29 01:47:13;;;;;;;4.60;0.90;;;13.30;1.00;;;;;;5023499;28;20937;-69
2023/10/29 01:49:39;;;;;;;4.25;0.70;;;13.40;1.00;;;;;;5023095;28;20838;-69
2023/10/29 01:52:05;;;;;;;4.38;0.52;;;13.40;1.00;;;;;;5020100;28;20434;-69
2023/10/29 01:54:30;;;;;;;4.70;0.80;;;13.40;1.00;;;;;;5025328;28;20531;-69
2023/10/29 01:56:56;;;;;;;4.30;0.60;;;13.50;1.00;;;;;;5011957;28;20455;-69
2023/10/29 01:59:22;;;;;;;7.65;0.88;;;13.50;1.00;;;;;;5011235;28;20389;-69
2023/10/29 02:01:47;;;;;;;5.90;1.10;;;13.70;1.00;;;;;;5012055;28;20423;-69
2023/10/29 02:04:13;;;;;;;4.50;0.70;;;13.50;1.00;;;;;;5026757;28;20808;-69
2023/10/29 02:06:39;;;;;;;4.80;0.90;;;13.40;1.00;;;;;;5018253;28;20452;-69
2023/10/29 02:09:06;;;;;;;5.20;0.80;;;13.30;1.00;;;;;;5031230;28;20809;-70
2023/10/29 02:11:31;;;;;;;4.50;0.80;;;13.30;1.00;;;;;;5030718;28;20416;-70
2023/10/29 02:13:57;;;;;;;4.33;0.70;;;13.20;1.00;;;;;;5030830;28;20812;-69
2023/10/29 02:16:23;;;;;;;4.40;0.90;;;13.10;1.00;;;;;;5013867;28;20408;-69
2023/10/29 02:18:49;;;;;;;5.05;0.70;;;13.10;1.00;;;;;;5011579;28;20528;-70
2023/10/29 02:21:14;;;;;;;4.70;0.80;;;13.00;1.00;;;;;;5020534;28;20470;-69
2023/10/29 02:23:40;;;;;;;4.30;0.50;;;13.10;1.00;;;;;;5031082;28;20480;-69
2023/10/29 02:26:06;;;;;;;4.60;0.90;;;13.10;1.00;;;;;;5031032;28;20471;-69
2023/10/29 02:28:31;;;;;;;5.30;0.80;;;13.20;1.00;;;;;;5031153;28;20423;-69
2023/10/29 02:30:57;;;;;;;4.60;0.70;;;13.30;1.00;;;;;;5031066;28;20391;-69
2023/10/29 02:33:22;;;;;;;4.30;0.63;;;13.30;1.00;;;;;;5020210;28;20391;-69
2023/10/29 02:35:49;;;;;;;4.60;0.70;;;13.30;1.00;;;;;;5011087;28;20393;-69
2023/10/29 02:38:16;;;;;;;4.90;0.90;;;13.40;1.00;;;;;;5011153;28;20436;-69
2023/10/29 02:40:42;;;;;;;4.60;0.80;;;13.40;1.00;;;;;;5011537;28;20451;-69
2023/10/29 02:43:08;;;;;;;6.80;0.70;;;13.50;1.00;;;;;;5009360;28;20393;-69
2023/10/29 02:45:33;;;;;;;4.70;0.80;;;13.50;1.00;;;;;;5011458;28;20456;-69
2023/10/29 02:47:59;;;;;;;4.33;0.67;;;13.50;1.00;;;;;;5011316;28;20385;-69
2023/10/29 02:50:24;;;;;;;4.50;0.80;;;13.40;1.00;;;;;;5009490;28;20413;-70
2023/10/29 02:52:50;;;;;;;4.93;0.82;;;13.50;1.00;;;;;;5009315;28;20443;-69
2023/10/29 02:55:15;;;;;;;5.10;1.10;;;13.50;1.00;;;;;;5010564;28;20416;-69
2023/10/29 02:57:41;;;;;;;4.60;0.70;;;13.50;1.00;;;;;;5009036;28;20411;-69
2023/10/29 03:00:07;;;;;;;4.67;0.70;;;13.40;1.00;;;;;;5009184;28;20948;-69
2023/10/29 03:02:33;;;;;;;4.70;0.80;;;13.40;1.00;;;;;;5011115;28;20399;-69
2023/10/29 03:04:58;;;;;;;4.73;0.80;;;13.50;1.00;;;;;;5009152;28;20404;-69
2023/10/29 03:07:24;;;;;;;4.93;0.73;;;13.40;1.00;;;;;;5010659;28;20395;-69
2023/10/29 03:09:49;;;;;;;4.60;1.08;;;13.40;1.00;;;;;;5019077;28;20940;-69
2023/10/29 03:12:15;;;;;;;4.90;0.80;;;13.30;1.00;;;;;;5029888;28;20402;-69
2023/10/29 03:14:41;;;;;;;5.90;0.80;;;13.10;1.00;;;;;;5028898;28;20399;-69
2023/10/29 03:17:06;;;;;;;4.50;0.70;;;13.00;1.00;;;;;;5016037;28;20914;-69
2023/10/29 03:19:32;;;;;;;5.40;0.60;;;13.00;1.00;;;;;;5022461;28;20399;-69
2023/10/29 03:21:57;;;;;;;4.70;0.80;;;13.10;1.00;;;;;;5016030;28;20402;-69
2023/10/29 03:24:23;;;;;;;4.60;1.00;;;13.10;1.00;;;;;;5020922;28;20397;-69
2023/10/29 03:26:48;;;;;;;4.88;1.10;;;13.30;1.00;;;;;;5008511;28;20419;-69
2023/10/29 03:29:13;;;;;;;4.85;0.70;;;13.20;1.00;;;;;;5008946;28;20568;-69
2023/10/29 03:31:39;;;;;;;4.53;0.70;;;13.10;1.00;;;;;;5010243;28;20407;-69
2023/10/29 03:34:05;;;;;;;5.13;0.77;;;13.00;1.00;;;;;;5010330;28;20388;-69
2023/10/29 03:36:30;;;;;;;4.88;0.88;;;12.90;1.00;;;;;;5010077;28;20484;-69
2023/10/29 03:38:56;;;;;;;4.60;0.60;;;12.90;1.00;;;;;;5008908;28;20412;-69
2023/10/29 03:41:22;;;;;;;5.30;1.00;;;12.80;1.00;;;;;;5009945;28;20401;-69
2023/10/29 03:43:49;;;;;;;4.70;0.88;;;13.00;1.00;;;;;;5010215;28;20388;-69
2023/10/29 03:46:14;;;;;;;5.85;0.70;;;13.00;1.00;;;;;;5008498;28;20427;-69
2023/10/29 03:48:44;;;;;;;4.60;0.68;;;13.10;1.00;;;;;;5008525;28;20643;-69
2023/10/29 03:51:11;;;;;;;4.60;0.60;;;13.20;1.00;;;;;;5008358;28;20499;-69
2023/10/29 03:53:37;;;;;;;4.70;0.80;;;13.10;1.00;;;;;;5009926;28;20431;-69
2023/10/29 03:56:03;;;;;;;4.20;0.50;;;13.20;1.00;;;;;;5010044;28;20875;-69
2023/10/29 03:58:28;;;;;;;4.50;0.67;;;13.20;1.00;;;;;;5008722;28;20401;-69
2023/10/29 04:00:54;;;;;;;5.63;0.82;;;13.10;1.00;;;;;;5009961;28;20393;-69
2023/10/29 04:03:19;;;;;;;4.20;0.70;;;13.10;1.00;;;;;;5009774;28;20964;-69
2023/10/29 04:05:45;;;;;;;5.40;0.80;;;13.00;1.00;;;;;;5009754;28;20399;-69
2023/10/29 04:08:11;;;;;;;4.80;0.90;;;12.90;1.00;;;;;;5009550;28;20393;-69
2023/10/29 04:10:36;;;;;;;5.43;0.73;;;12.80;1.00;;;;;;5009678;28;20427;-69
2023/10/29 04:13:02;;;;;;;7.30;1.10;;;12.80;1.00;;;;;;5016581;28;20418;-69
2023/10/29 04:15:27;;;;;;;5.50;0.83;;;12.80;1.00;;;;;;5036707;28;20405;-69
2023/10/29 04:17:53;;;;;;;5.00;0.90;;;12.80;1.00;;;;;;5030961;28;20889;-69
2023/10/29 04:20:18;;;;;;;4.70;0.70;;;12.80;1.00;;;;;;5028015;28;20399;-69
2023/10/29 04:22:44;;;;;;;7.70;0.80;;;12.90;1.00;;;;;;5010314;28;20508;-69
2023/10/29 04:25:10;;;;;;;5.33;0.80;;;12.90;1.00;;;;;;5025368;28;20903;-69
2023/10/29 04:27:35;;;;;;;4.10;0.30;;;13.00;1.00;;;;;;5025324;28;20442;-69
2023/10/29 04:30:01;;;;;;;4.53;0.60;;;13.10;1.00;;;;;;5009885;28;20526;-69
2023/10/29 04:32:26;;;;;;;4.40;0.50;;;13.10;1.00;;;;;;5009162;28;20768;-69
2023/10/29 04:34:52;;;;;;;4.22;0.50;;;13.30;1.00;;;;;;5014216;28;20765;-69
2023/10/29 04:37:17;;;;;;;4.20;0.60;;;13.50;1.00;;;;;;5023744;28;20431;-69
2023/10/29 04:39:44;;;;;;;4.20;0.70;;;13.70;1.00;;;;;;5028562;28;20434;-69
2023/10/29 04:42:09;;;;;;;4.50;0.70;;;13.80;1.00;;;;;;5032888;28;20486;-69
2023/10/29 04:44:35;;;;;;;5.40;0.90;;;13.90;1.00;;;;;;5033665;28;20482;-68
2023/10/29 04:47:03;;;;;;;4.68;0.60;;;13.90;1.00;;;;;;5024468;28;20771;-69
2023/10/29 04:49:29;;;;;;;5.00;0.70;;;13.90;1.00;;;;;;5013252;28;20447;-69
2023/10/29 04:51:55;;;;;;;5.00;0.87;;;14.00;1.00;;;;;;5023157;28;20391;-70
2023/10/29 04:54:20;;;;;;;4.30;0.57;;;14.00;1.00;;;;;;5030966;28;20483;-70
2023/10/29 04:56:46;;;;;;;4.20;0.43;;;14.00;1.00;;;;;;5031794;28;20877;-70
2023/10/29 04:59:13;;;;;;;4.90;0.60;;;14.00;1.00;;;;;;5032877;28;20437;-69
2023/10/29 05:01:39;;;;;;;4.78;1.00;;;13.80;1.00;;;;;;5032737;28;20414;-69
2023/10/29 05:04:05;;;;;;;4.70;0.70;;;13.80;1.00;;;;;;5023250;28;20476;-69
2023/10/29 05:06:30;;;;;;;5.40;0.90;;;13.80;1.00;;;;;;5012633;28;20467;-69
2023/10/29 05:08:56;;;;;;;4.80;0.70;;;13.70;1.00;;;;;;5012779;28;20416;-69
2023/10/29 05:11:22;;;;;;;5.45;0.80;;;13.60;1.00;;;;;;5013059;28;20392;-69
2023/10/29 05:13:47;;;;;;;4.40;0.70;;;13.70;1.00;;;;;;5012886;28;20393;-70
2023/10/29 05:16:14;;;;;;;6.00;0.80;;;13.60;1.00;;;;;;5012703;28;20424;-70
2023/10/29 05:18:39;;;;;;;4.40;0.60;;;13.60;1.00;;;;;;5012961;28;20902;-70
2023/10/29 05:21:05;;;;;;;6.10;0.80;;;13.50;1.00;;;;;;5013011;28;20419;-70
2023/10/29 05:23:31;;;;;;;4.40;0.57;;;13.50;1.00;;;;;;5011511;28;20731;-70
2023/10/29 05:25:56;;;;;;;4.20;0.57;;;13.60;1.00;;;;;;5010919;28;20763;-70
2023/10/29 05:28:22;;;;;;;5.50;0.60;;;13.50;1.00;;;;;;5010708;28;20408;-70
2023/10/29 05:30:47;;;;;;;4.30;0.60;;;13.50;1.00;;;;;;5013001;28;20455;-70
2023/10/29 05:33:13;;;;;;;4.72;0.60;;;13.50;1.00;;;;;;5012384;28;20412;-70
2023/10/29 05:35:38;;;;;;;4.30;0.50;;;13.40;1.00;;;;;;5012453;28;20393;-70
2023/10/29 05:38:04;;;;;;;4.80;0.70;;;13.40;1.00;;;;;;5011398;28;20417;-69
2023/10/29 05:40:31;;;;;;;5.10;0.70;;;13.40;1.00;;;;;;5020187;28;20391;-69
2023/10/29 05:42:57;;;;;;;4.70;0.65;;;13.60;1.00;;;;;;5032170;28;20445;-69
2023/10/29 05:45:22;;;;;;;4.60;0.50;;;13.60;1.00;;;;;;5031820;28;20399;-69
2023/10/29 05:47:48;;;;;;;4.70;0.80;;;13.70;1.00;;;;;;5032041;28;20492;-69
2023/10/29 05:50:13;;;;;;;5.30;0.68;;;13.60;1.00;;;;;;5031662;28;20415;-70
2023/10/29 05:52:39;;;;;;;5.37;0.77;;;13.60;1.00;;;;;;5030212;28;20663;-70
2023/10/29 05:55:05;;;;;;;4.65;0.80;;;13.50;1.00;;;;;;5032217;28;20754;-70
2023/10/29 05:57:31;;;;;;;4.47;0.77;;;13.60;1.00;;;;;;5032302;28;20960;-69
2023/10/29 05:59:57;;;;;;;4.60;0.70;;;13.60;1.00;;;;;;5031926;28;20486;-69
2023/10/29 06:02:22;;;;;;;4.60;0.80;;;13.60;1.00;;;;;;5028451;28;20451;-71
2023/10/29 06:04:48;;;;;;;5.00;1.00;;;13.60;1.00;;;;;;5029931;28;20402;-71
2023/10/29 06:07:13;;;;;;;4.10;0.57;;;13.70;1.00;;;;;;5026322;28;20976;-71
2023/10/29 06:09:41;;;;;;;4.63;0.80;;;13.80;1.00;;;;;;5022964;28;20415;-71
2023/10/29 06:12:08;;;;;;;4.25;0.50;;;13.80;1.00;;;;;;5022611;28;20427;-71
2023/10/29 06:14:33;;;;;;;4.70;0.70;;;13.80;1.00;;;;;;5012822;28;20400;-72
2023/10/29 06:16:59;;;;;;;5.90;1.00;;;13.70;1.00;;;;;;5026261;28;20765;-71
2023/10/29 06:19:24;;;;;;;4.30;0.60;;;13.70;1.00;;;;;;5031734;28;20395;-71
2023/10/29 06:21:50;;;;;;;6.40;1.00;;;13.60;1.00;;;;;;5030895;28;20426;-71
2023/10/29 06:24:16;;;;;;;5.63;1.08;;;13.40;1.00;;;;;;5027032;28;20404;-71
2023/10/29 06:26:42;;;;;;;4.30;0.52;;;13.40;1.00;;;;;;5017672;28;20404;-70
2023/10/29 06:29:08;;;;;;;4.80;0.75;;;13.40;1.00;;;;;;5011859;28;20829;-71
2023/10/29 06:31:34;;;;;;;4.70;0.88;;;13.50;1.00;;;;;;5018596;28;20426;-71
2023/10/29 06:34:01;;;;;;;5.00;0.80;;;13.50;1.00;;;;;;5014275;28;20414;-71
2023/10/29 06:36:27;;;;;;;4.10;0.50;;;13.60;1.00;;;;;;5011372;28;20919;-71
2023/10/29 06:38:53;;;;;;;4.50;0.70;;;13.70;1.00;;;;;;5011641;28;20393;-71
2023/10/29 06:41:18;;;;;;;4.82;0.70;;;13.70;1.00;;;;;;5027634;28;20526;-71
2023/10/29 06:43:44;;;;;;;4.50;0.60;;;13.90;1.00;;;;;;5028852;28;20404;-71
2023/10/29 06:46:10;;;;;;;5.23;0.83;;;14.00;1.00;;;;;;5036898;28;20395;-70
2023/10/29 06:48:41;;;;;;;6.90;1.03;;;14.10;1.00;;;;;;5015196;28;20411;-71
2023/10/29 06:51:07;;;;;;;4.67;0.63;;;14.10;1.00;;;;;;5014398;28;20823;-69
2023/10/29 06:53:32;;;;;;;5.20;1.40;;;14.00;1.00;;;;;;5019835;28;20476;-69
2023/10/29 06:56:02;;;;;;;5.33;0.70;;;14.00;1.00;;;;;;5014755;28;20506;-69
2023/10/29 06:58:27;;;;;;;4.60;0.60;;;14.00;1.00;;;;;;5022341;28;20418;-69
2023/10/29 07:00:53;;;;;;;4.30;0.60;;;14.00;1.00;;;;;;5014607;28;20401;-69
2023/10/29 07:03:19;;;;;;;4.40;0.90;;;14.00;1.00;;;;;;5024993;28;20395;-69
2023/10/29 07:05:44;;;;;;;5.50;0.73;;;14.00;1.00;;;;;;5018514;28;20486;-69
2023/10/29 07:08:10;;;;;;;4.40;0.50;;;14.00;1.00;;;;;;5013239;28;20415;-69
2023/10/29 07:10:36;;;;;;;5.50;0.90;;;14.00;1.00;;;;;;5024305;28;20431;-69
2023/10/29 07:13:02;;;;;;;4.70;1.00;;;14.00;1.00;;;;;;5020411;28;20399;-69
2023/10/29 07:15:28;;;;;;;5.50;0.90;;;13.90;1.00;;;;;;5020077;28;20423;-69
2023/10/29 07:17:55;;;;;;;4.40;0.70;;;14.10;1.00;;;;;;5029591;28;20388;-69
2023/10/29 07:20:20;;;;;;;5.10;0.80;;;14.10;1.00;;;;;;5016183;28;20422;-69
2023/10/29 07:22:46;;;;;;;4.60;0.60;;;14.10;1.00;;;;;;5010433;28;20413;-69
2023/10/29 07:25:11;;;;;;;4.60;0.88;;;14.10;1.00;;;;;;5025720;28;20407;-68
2023/10/29 07:27:37;;;;;;;4.30;0.70;;;14.20;1.00;;;;;;5015832;28;20407;-69
2023/10/29 07:30:03;;;;;;;4.78;0.70;;;14.40;1.00;;;;;;5022783;28;20776;-69
2023/10/29 07:32:29;;;;;;;5.40;0.80;;;14.50;1.00;;;;;;5028396;28;20904;-69
2023/10/29 07:34:54;;;;;;;5.40;0.95;;;14.70;1.00;;;;;;5023904;28;20447;-69
2023/10/29 07:37:20;;;;;;;5.10;0.80;;;14.60;1.00;;;;;;5024955;28;20415;-69
2023/10/29 07:39:45;;;;;;;4.50;0.70;;;14.70;1.00;;;;;;5024060;28;20436;-69
2023/10/29 07:42:11;;;;;;;4.57;0.80;;;14.80;1.00;;;;;;5017300;28;20515;-69
2023/10/29 07:44:36;;;;;;;6.50;1.20;;;14.50;1.00;;;;;;5022792;28;20430;-69
2023/10/29 07:47:08;;;;;;;4.50;0.90;;;14.30;1.00;;;;;;5017824;28;20465;-69
2023/10/29 07:49:39;;;;;;;4.90;1.00;;;14.30;1.00;;;;;;5017065;28;20433;-69
2023/10/29 07:52:05;;;;;;;4.60;0.90;;;14.40;1.00;;;;;;5027665;28;20441;-69
2023/10/29 07:54:31;;;;;;;5.20;1.00;;;14.50;1.00;;;;;;5019012;28;20444;-70
2023/10/29 07:56:56;;;;;;;4.50;0.88;;;14.70;1.00;;;;;;5018680;28;20939;-70
2023/10/29 07:59:22;;;;;;;5.13;1.13;;;14.90;1.00;;;;;;5011872;28;20412;-70
2023/10/29 08:01:47;;;;;;;5.67;0.80;;;15.10;1.00;;;;;;5020290;28;21378;-70
2023/10/29 08:04:13;;;;;;;9.00;1.00;;;15.30;1.00;;;;;;5018882;28;20777;-70
2023/10/29 08:06:38;;;;;;;6.90;0.77;;;15.60;1.00;;;;;;5027722;28;20925;-71
2023/10/29 08:09:04;;;;;;;4.55;0.70;;;15.50;1.00;;;;;;5015073;28;20519;-70
2023/10/29 08:11:31;;;;;;;4.70;0.82;;;15.40;1.00;;;;;;5021066;28;20405;-70
2023/10/29 08:13:56;;;;;;;4.60;0.80;;;15.40;1.00;;;;;;5013250;28;20409;-70
2023/10/29 08:16:22;;;;;;;4.60;0.90;;;15.50;1.00;;;;;;5019648;28;20410;-70
2023/10/29 08:18:48;;;;;;;5.75;1.08;;;15.70;1.00;;;;;;5024232;28;20449;-70
2023/10/29 08:21:15;;;;;;;4.80;0.85;;;16.00;1.00;;;;;;5018002;28;20407;-70
2023/10/29 08:23:40;;;;;;;5.90;0.80;;;15.90;1.00;;;;;;5020385;28;20393;-70
2023/10/29 08:26:06;;;;;;;4.88;1.00;;;15.90;1.00;;;;;;5023128;28;20410;-69
2023/10/29 08:28:31;;;;;;;5.00;1.00;;;15.90;1.00;;;;;;5024825;28;20437;-69
2023/10/29 08:30:57;;;;;;;4.90;0.80;;;15.90;1.00;;;;;;5020320;28;20419;-69
2023/10/29 08:33:22;;;;;;;4.90;1.10;;;15.80;1.00;;;;;;5019593;28;20435;-69
2023/10/29 08:35:48;;;;;;;5.00;0.80;;;15.80;1.00;;;;;;5025869;28;20411;-69
2023/10/29 08:38:14;;;;;;;5.47;0.82;;;15.70;1.00;;;;;;5012362;28;20439;-70
2023/10/29 08:40:39;;;;;;;4.97;1.00;;;15.70;1.00;;;;;;5009308;28;20495;-69
2023/10/29 08:43:05;;;;;;;4.40;0.70;;;15.60;1.00;;;;;;5021321;28;20477;-69
2023/10/29 08:45:31;;;;;;;5.85;1.00;;;15.70;1.00;;;;;;5022253;28;20492;-69
2023/10/29 08:47:57;;;;;;;4.90;1.00;;;15.80;1.00;;;;;;5025810;28;20902;-69
2023/10/29 08:50:22;;;;;;;5.30;1.17;;;15.90;1.00;;;;;;5020005;28;20419;-69
2023/10/29 08:52:48;;;;;;;5.10;1.00;;;15.90;1.00;;;;;;5027365;28;20421;-69
2023/10/29 08:55:14;;;;;;;4.90;1.00;;;16.00;1.00;;;;;;5016600;28;20432;-69
2023/10/29 08:57:39;;;;;;;5.40;1.00;;;16.00;1.00;;;;;;5019316;28;20415;-69
2023/10/29 09:00:05;;;;;;;4.80;0.90;;;15.90;1.00;;;;;;5020792;28;20414;-69
2023/10/29 09:02:33;;;;;;;6.40;1.23;;;16.00;1.00;;;;;;5022892;28;21230;-70
2023/10/29 09:05:00;;;;;;;6.50;1.80;;;16.10;1.00;;;;;;5018957;28;21000;-69
2023/10/29 09:07:27;;;;;;;8.77;2.57;;;16.20;1.00;;;;;;5013821;28;20397;-70
2023/10/29 09:09:53;;;;;;;9.60;2.70;;;16.30;1.00;;;;;;5019575;28;20420;-69
2023/10/29 09:12:19;;;;;;;10.63;2.08;;;16.20;1.00;;;;;;5026453;28;20410;-69
2023/10/29 09:14:45;;;;;;;6.65;1.90;;;16.10;1.00;;;;;;5012300;28;20420;-69
2023/10/29 09:17:11;;;;;;;7.88;2.10;;;16.20;1.00;;;;;;5016597;28;20419;-70
2023/10/29 09:19:36;;;;;;;9.37;1.97;;;16.40;1.00;;;;;;5015600;28;20408;-69
2023/10/29 09:22:02;;;;;;;8.07;2.07;;;16.50;1.00;;;;;;5012716;28;20412;-69
2023/10/29 09:24:29;;;;;;;5.95;1.45;;;16.60;1.00;;;;;;5020856;28;20408;-69
2023/10/29 09:26:56;;;;;;;6.30;1.30;;;16.70;1.00;;;;;;5012726;28;20405;-69
2023/10/29 09:29:23;;;;;;;5.28;1.30;;;16.50;1.00;;;;;;5020257;28;20419;-70
2023/10/29 09:31:48;;;;;;;6.30;1.58;;;16.30;1.00;;;;;;5018087;28;20414;-70
2023/10/29 09:34:14;;;;;;;6.80;1.60;;;16.20;1.00;;;;;;5030941;28;20860;-70
2023/10/29 09:36:39;;;;;;;7.77;2.10;;;16.30;1.00;;;;;;5018604;28;20483;-70
2023/10/29 09:39:05;;;;;;;6.87;1.87;;;16.40;1.00;;;;;;5012784;28;20439;-70
2023/10/29 09:41:34;;;;;;;6.60;1.98;;;16.40;1.00;;;;;;5023355;28;20820;-70
2023/10/29 09:44:00;;;;;;;5.57;1.40;;;16.30;1.00;;;;;;5025804;28;20407;-69
2023/10/29 09:46:30;;;;;;;6.53;1.63;;;16.20;1.00;;;;;;5023763;28;20444;-68
2023/10/29 09:48:56;;;;;;;4.80;0.93;;;16.20;1.00;;;;;;5027322;28;20450;-69
2023/10/29 09:51:22;;;;;;;5.70;1.10;;;16.00;1.00;;;;;;5022807;28;20407;-69
2023/10/29 09:53:49;;;;;;;6.83;1.20;;;15.90;1.00;;;;;;5025223;28;20462;-70
2023/10/29 09:56:17;;;;;;;5.70;1.15;;;15.80;1.00;;;;;;5026346;28;20407;-70
2023/10/29 09:58:42;;;;;;;5.70;1.30;;;15.80;1.00;;;;;;5021775;28;20432;-70
2023/10/29 10:01:08;;;;;;;5.37;0.97;;;15.90;1.00;;;;;;5017749;28;20422;-70
2023/10/29 10:03:35;;;;;;;5.90;1.70;;;15.90;1.00;;;;;;5013910;28;20427;-70
2023/10/29 10:06:01;;;;;;;7.00;2.15;;;15.90;1.00;;;;;;5027222;28;20457;-69
2023/10/29 10:08:28;;;;;;;6.13;1.67;;;15.80;1.00;;;;;;5024575;28;20416;-69
2023/10/29 10:10:54;;;;;;;5.38;1.23;;;15.80;1.00;;;;;;5033082;28;20889;-69
2023/10/29 10:13:37;;;;;;;6.70;1.73;;;15.90;1.00;;;;;;5028667;28;20388;-69
2023/10/29 10:16:08;;;;;;;5.10;1.38;;;16.00;1.00;;;;;;5024249;28;20687;-69
2023/10/29 10:18:57;;;;;;;4.60;1.10;;;16.10;1.00;;;;;;5020439;28;20478;-69
2023/10/29 10:21:26;;;;;;;5.80;1.20;;;16.10;1.00;;;;;;5011756;28;20404;-69
2023/10/29 10:23:56;;;;;;;4.97;1.23;;;16.10;1.00;;;;;;5021903;28;20494;-69
2023/10/29 10:26:32;;;;;;;6.07;1.30;;;16.20;1.00;;;;;;5015710;28;20511;-69
2023/10/29 10:28:58;;;;;;;4.93;1.10;;;16.20;1.00;;;;;;5018088;28;20970;-68
2023/10/29 10:31:27;;;;;;;5.80;1.50;;;16.20;1.00;;;;;;5020381;28;20426;-69
2023/10/29 10:34:16;;;;;;;6.40;1.17;;;16.20;1.00;;;;;;5027860;28;20418;-69
2023/10/29 10:36:49;;;;;;;5.25;1.30;;;16.20;1.00;;;;;;5020381;28;20411;-69
2023/10/29 10:39:15;;;;;;;4.88;1.10;;;16.20;1.00;;;;;;5018930;28;20814;-70
2023/10/29 10:41:44;;;;;;;8.52;1.50;;;16.10;1.00;;;;;;5017067;28;20413;-69
2023/10/29 10:44:19;;;;;;;5.20;1.40;;;16.30;1.00;;;;;;5018893;28;20409;-69
2023/10/29 10:46:56;;;;;;;5.13;1.40;;;16.30;1.00;;;;;;5028494;28;20409;-69
2023/10/29 10:49:23;;;;;;;6.20;1.98;;;16.30;1.00;;;;;;5017109;28;20455;-69
2023/10/29 10:51:56;;;;;;;5.50;1.30;;;16.30;1.00;;;;;;5014735;28;20397;-71
2023/10/29 10:54:22;;;;;;;5.00;1.00;;;16.20;1.00;;;;;;5022326;28;20425;-68
2023/10/29 10:56:50;;;;;;;7.40;1.73;;;16.20;1.00;;;;;;5014902;28;20412;-69
2023/10/29 10:59:15;;;;;;;5.75;1.40;;;16.20;1.00;;;;;;5022223;28;20407;-69
2023/10/29 11:01:41;;;;;;;4.70;1.40;;;16.30;1.00;;;;;;5017028;28;20401;-69
2023/10/29 11:04:09;;;;;;;5.70;1.40;;;16.40;1.00;;;;;;5015607;28;20405;-69
2023/10/29 11:06:36;;;;;;;7.95;1.25;;;16.60;1.00;;;;;;5023561;28;21532;-68
2023/10/29 11:09:05;;;;;;;10.60;1.53;;;16.60;1.00;;;;;;5017239;28;20428;-68
2023/10/29 11:11:38;;;;;;;5.07;1.25;;;16.80;1.00;;;;;;5015350;28;20399;-68
2023/10/29 11:14:08;;;;;;;4.93;1.30;;;16.90;1.00;;;;;;5026105;28;20395;-68
2023/10/29 11:16:44;;;;;;;5.80;1.60;;;16.80;1.00;;;;;;5024290;28;20403;-69
2023/10/29 11:19:43;;;;;;;6.32;1.23;;;16.80;1.00;;;;;;5027882;28;20770;-69
2023/10/29 11:22:22;;;;;;;4.95;1.10;;;16.70;1.00;;;;;;5011682;28;20444;-69
2023/10/29 11:25:10;;;;;;;5.45;1.35;;;16.70;1.00;;;;;;5026500;28;20411;-69
2023/10/29 11:27:46;;;;;;;8.60;1.40;;;16.80;1.00;;;;;;5034981;28;20410;-68
2023/10/29 11:30:20;;;;;;;9.45;1.80;;;16.90;1.00;;;;;;5028169;28;20546;-69
2023/10/29 11:33:06;;;;;;;6.43;1.50;;;17.20;1.00;;;;;;5021686;28;20446;-69
2023/10/29 11:35:35;;;;;;;6.80;1.60;;;17.50;1.00;;;;;;5028234;28;20468;-68
2023/10/29 11:38:33;;;;;;;6.28;1.35;;;17.60;1.00;;;;;;5027963;28;20395;-69
2023/10/29 11:40:59;;;;;;;9.10;1.60;;;17.80;1.00;;;;;;5017933;28;20445;-69
2023/10/29 11:43:25;;;;;;;5.80;1.50;;;17.70;1.00;;;;;;5018317;28;20407;-69
2023/10/29 11:45:57;;;;;;;6.07;1.60;;;17.70;1.00;;;;;;5023301;28;20408;-69
2023/10/29 11:48:23;;;;;;;6.70;1.80;;;17.80;1.00;;;;;;5016880;28;20806;-69
2023/10/29 11:51:05;;;;;;;8.50;1.40;;;17.90;1.00;;;;;;5023838;28;20449;-68
2023/10/29 11:53:31;;;;;;;8.20;1.50;;;18.00;1.00;;;;;;5016946;28;20838;-69
2023/10/29 11:56:04;;;;;;;5.00;1.27;;;17.90;1.00;;;;;;5020294;28;20419;-68
2023/10/29 11:58:30;;;;;;;5.87;1.23;;;17.90;1.00;;;;;;5020053;28;20411;-69
2023/10/29 12:00:57;;;;;;;7.53;1.70;;;18.10;1.00;;;;;;5011788;28;20534;-69
2023/10/29 12:03:23;;;;;;;5.50;1.50;;;18.50;1.00;;;;;;5019513;28;20406;-69
2023/10/29 12:05:50;;;;;;;6.75;2.00;;;18.80;1.00;;;;;;5020575;28;20461;-69
2023/10/29 12:08:16;;;;;;;6.45;1.58;;;19.20;1.00;;;;;;5016150;28;20748;-69
2023/10/29 12:10:49;;;;;;;6.50;1.67;;;19.50;1.00;;;;;;5014970;28;20770;-69
2023/10/29 12:13:18;;;;;;;5.68;1.42;;;19.90;1.00;;;;;;5019958;28;20907;-69
2023/10/29 12:15:56;;;;;;;6.18;1.40;;;20.10;1.00;;;;;;5016596;28;20404;-69
2023/10/29 12:18:23;;;;;;;7.60;1.70;;;20.20;1.00;;;;;;5022826;28;20476;-69
2023/10/29 12:21:02;;;;;;;5.78;1.48;;;20.20;1.00;;;;;;5023355;28;20406;-69
2023/10/29 12:23:28;;;;;;;5.50;1.30;;;20.50;1.00;;;;;;5027636;28;20414;-69
2023/10/29 12:25:55;;;;;;;6.50;1.50;;;20.80;1.00;;;;;;5026217;28;20402;-70
2023/10/29 12:28:20;;;;;;;5.70;1.50;;;21.00;1.00;;;;;;5027337;28;20406;-69
2023/10/29 12:30:47;;;;;;;5.80;1.17;;;21.20;1.00;;;;;;5017016;28;20417;-69
2023/10/29 12:33:26;;;;;;;6.20;1.17;;;21.30;1.00;;;;;;5008945;28;20405;-69
2023/10/29 12:35:54;;;;;;;5.32;1.00;;;21.40;1.00;;;;;;5019049;28;20387;-69
2023/10/29 12:38:21;;;;;;;4.80;0.70;;;21.40;1.00;;;;;;5018761;28;20404;-69
2023/10/29 12:41:27;;;;;;;5.55;1.02;;;21.40;1.00;;;;;;5017896;28;20906;-69
2023/10/29 12:43:53;;;;;;;4.40;0.57;;;21.40;1.00;;;;;;4986400;28;21032;-69
2023/10/29 12:46:20;;;;;;;4.50;0.70;;;21.30;1.00;;;;;;5015494;28;20415;-69
2023/10/29 12:49:05;;;;;;;5.80;0.65;;;21.20;1.00;;;;;;5022207;28;20944;-69
2023/10/29 12:51:32;;;;;;;4.90;0.80;;;21.20;1.00;;;;;;5019486;28;20395;-69
2023/10/29 12:54:23;;;;;;;4.80;0.70;;;21.20;1.00;;;;;;5017667;28;20401;-69
2023/10/29 12:56:51;;;;;;;4.93;0.80;;;21.10;1.00;;;;;;5023161;28;20394;-69